Time;durP1;ratioP1;P1;durP2;ratioP2;P2;SDS_P1;SDS_P2;PMS_P1;PMS_P2;Temp;Humidity;BMP_temperature;BMP_pressure;BME280_temperature;BME280_humidity;BME280_pressure;Samples;Min_cycle;Max_cycle;Signal;HPM_P1;HPM_P2
2023/02/11 00:02:08;;;;;;;206.57;68.90;;;-0.80;99.90;;;-2.36;100.00;99339.31;5052958;28;20496;-78
2023/02/11 00:04:34;;;;;;;213.73;69.90;;;-0.90;99.90;;;-2.39;100.00;99336.94;5053018;28;20401;-78
2023/02/11 00:07:01;;;;;;;216.05;71.65;;;-0.90;99.90;;;-2.42;100.00;99332.00;5051579;28;20914;-78
2023/02/11 00:09:27;;;;;;;216.30;71.25;;;-0.90;99.90;;;-2.44;100.00;99328.72;5053010;28;20404;-79
2023/02/11 00:11:53;;;;;;;207.60;70.53;;;-1.00;99.90;;;-2.46;100.00;99327.16;5052732;28;20432;-78
2023/02/11 00:14:19;;;;;;;193.68;67.28;;;-1.00;99.90;;;-2.50;100.00;99328.38;5053033;28;20562;-79
2023/02/11 00:16:45;;;;;;;204.53;71.57;;;-1.10;99.90;;;-2.52;100.00;99328.50;5053028;28;20401;-79
2023/02/11 00:19:11;;;;;;;211.68;70.00;;;-1.10;99.90;;;-2.51;100.00;99339.69;5051696;28;20508;-78
2023/02/11 00:21:37;;;;;;;221.93;72.70;;;-1.10;99.90;;;-2.53;100.00;99331.19;5051307;28;20802;-79
2023/02/11 00:24:05;;;;;;;225.70;73.95;;;-1.10;99.90;;;-2.54;100.00;99332.97;5052865;28;20494;-79
2023/02/11 00:26:33;;;;;;;206.48;69.78;;;-1.10;99.90;;;-2.55;100.00;99333.06;5034841;28;20412;-79
2023/02/11 00:29:00;;;;;;;214.38;72.00;;;-1.10;99.90;;;-2.56;100.00;99332.28;5052529;28;20480;-79
2023/02/11 00:31:27;;;;;;;215.73;72.95;;;-1.10;99.90;;;-2.55;100.00;99325.28;5052318;28;20424;-79
2023/02/11 00:33:54;;;;;;;210.65;72.80;;;-1.10;99.90;;;-2.55;100.00;99312.34;5052594;28;20461;-78
2023/02/11 00:36:23;;;;;;;202.68;69.97;;;-1.10;99.90;;;-2.56;100.00;99318.50;5052320;28;20407;-79
2023/02/11 00:38:51;;;;;;;215.40;72.40;;;-1.10;99.90;;;-2.54;100.00;99308.81;5052431;28;20464;-78
2023/02/11 00:41:19;;;;;;;197.18;67.47;;;-1.10;99.90;;;-2.58;100.00;99315.19;5052208;28;20401;-78
2023/02/11 00:43:46;;;;;;;190.10;65.93;;;-1.10;99.90;;;-2.59;100.00;99308.34;5052404;28;20401;-78
2023/02/11 00:46:12;;;;;;;192.02;66.10;;;-1.10;99.90;;;-2.60;100.00;99301.50;5052035;28;20405;-78
2023/02/11 00:48:39;;;;;;;172.73;61.22;;;-1.10;99.90;;;-2.64;100.00;99306.13;5052227;28;20423;-78
2023/02/11 00:51:05;;;;;;;171.50;60.97;;;-1.20;99.90;;;-2.66;100.00;99312.38;5051846;28;20488;-78
2023/02/11 00:53:32;;;;;;;186.35;63.97;;;-1.20;99.90;;;-2.63;100.00;99312.16;5052035;28;20754;-78
2023/02/11 00:55:58;;;;;;;175.32;60.08;;;-1.20;99.90;;;-2.68;100.00;99320.25;5051259;28;20458;-78
2023/02/11 00:58:25;;;;;;;169.13;60.33;;;-1.20;99.90;;;-2.71;100.00;99315.34;5051904;28;20409;-78
2023/02/11 01:00:52;;;;;;;171.23;59.10;;;-1.20;99.90;;;-2.70;100.00;99316.13;5051993;28;20416;-78
2023/02/11 01:03:18;;;;;;;160.40;56.22;;;-1.20;99.90;;;-2.70;100.00;99311.78;5051671;28;20906;-78
2023/02/11 01:05:44;;;;;;;159.85;57.88;;;-1.20;99.90;;;-2.68;100.00;99316.84;5051862;28;20402;-77
2023/02/11 01:08:10;;;;;;;166.10;57.80;;;-1.20;99.90;;;-2.69;100.00;99302.22;5051559;28;20397;-77
2023/02/11 01:10:36;;;;;;;153.95;55.42;;;-1.30;99.90;;;-2.72;100.00;99305.09;5051765;28;20406;-77
2023/02/11 01:13:03;;;;;;;145.80;53.60;;;-1.30;99.90;;;-2.75;100.00;99306.97;5051444;28;20398;-78
2023/02/11 01:15:30;;;;;;;150.93;55.78;;;-1.30;99.90;;;-2.79;100.00;99296.97;5051732;28;20404;-80
2023/02/11 01:17:56;;;;;;;136.32;53.45;;;-1.30;99.90;;;-2.79;100.00;99292.59;5051424;28;20463;-79
2023/02/11 01:20:25;;;;;;;141.82;52.15;;;-1.30;99.90;;;-2.77;100.00;99287.28;5051450;28;20413;-78
2023/02/11 01:22:51;;;;;;;144.98;52.90;;;-1.30;99.90;;;-2.77;100.00;99280.34;5051353;28;20405;-78
2023/02/11 01:25:18;;;;;;;138.00;50.80;;;-1.30;99.90;;;-2.77;100.00;99277.75;5051516;28;20398;-79
2023/02/11 01:27:44;;;;;;;141.07;51.67;;;-1.30;99.90;;;-2.77;100.00;99269.13;5051365;28;20439;-79
2023/02/11 01:30:12;;;;;;;137.02;50.13;;;-1.30;99.90;;;-2.77;100.00;99271.72;5051501;28;20412;-79
2023/02/11 01:32:40;;;;;;;127.30;46.58;;;-1.30;99.90;;;-2.77;100.00;99261.38;5051002;28;20456;-79
2023/02/11 01:35:07;;;;;;;132.32;48.25;;;-1.30;99.90;;;-2.76;100.00;99256.06;5051303;28;20405;-79
2023/02/11 01:37:34;;;;;;;127.88;46.47;;;-1.30;99.90;;;-2.75;100.00;99262.91;5050617;28;20467;-79
2023/02/11 01:40:01;;;;;;;130.05;47.55;;;-1.30;99.90;;;-2.75;100.00;99264.66;5051058;28;20413;-79
2023/02/11 01:42:27;;;;;;;131.95;47.47;;;-1.30;99.90;;;-2.75;100.00;99267.25;5050810;28;20401;-79
2023/02/11 01:44:54;;;;;;;136.05;48.60;;;-1.30;99.90;;;-2.74;100.00;99263.72;5051120;28;20484;-79
2023/02/11 01:47:20;;;;;;;134.77;49.80;;;-1.30;99.90;;;-2.72;100.00;99267.03;5050884;28;20478;-79
2023/02/11 01:49:54;;;;;;;121.93;46.97;;;-1.30;99.90;;;-2.76;100.00;99263.03;5051138;28;20463;-79
2023/02/11 01:52:25;;;;;;;122.17;46.03;;;-1.30;99.90;;;-2.77;100.00;99264.78;5050671;28;20403;-79
2023/02/11 01:57:45;;;;;;;122.57;47.60;;;-1.30;99.90;;;-2.78;100.00;99255.34;5050819;28;20413;-78
2023/02/11 02:00:19;;;;;;;112.57;45.10;;;-1.30;99.90;;;-2.81;100.00;99257.38;5050850;28;20533;-79
2023/02/11 02:02:54;;;;;;;123.28;46.50;;;-1.40;99.90;;;-2.80;100.00;99265.03;5050506;28;20909;-79
2023/02/11 02:05:31;;;;;;;116.63;45.30;;;-1.30;99.90;;;-2.79;100.00;99260.69;5050858;28;20484;-78
2023/02/11 02:08:06;;;;;;;124.38;45.95;;;-1.40;99.90;;;-2.81;100.00;99254.78;5050606;28;20887;-78
2023/02/11 02:10:34;;;;;;;117.68;44.78;;;-1.30;99.90;;;-2.77;100.00;99251.00;5050880;28;20477;-79
2023/02/11 02:13:00;;;;;;;123.63;47.75;;;-1.30;99.90;;;-2.77;100.00;99241.47;5050417;28;20401;-79
2023/02/11 02:15:30;;;;;;;118.38;45.70;;;-1.30;99.90;;;-2.78;100.00;99245.00;5050733;28;20879;-78
2023/02/11 02:18:19;;;;;;;102.05;41.55;;;-1.30;99.90;;;-2.79;100.00;99245.97;5050644;28;20871;-78
2023/02/11 02:21:19;;;;;;;113.13;45.42;;;-1.30;99.90;;;-2.76;100.00;99247.47;5029376;28;20435;-79
2023/02/11 02:24:36;;;;;;;117.55;45.92;;;-1.30;99.90;;;-2.79;100.00;99240.78;5030595;28;20494;-79
2023/02/11 02:27:24;;;;;;;113.60;44.37;;;-1.40;99.90;;;-2.79;100.00;99239.97;5030331;28;20489;-79
2023/02/11 02:30:46;;;;;;;107.90;43.80;;;-1.30;99.90;;;-2.76;100.00;99232.75;5030494;28;20415;-79
2023/02/11 02:33:32;;;;;;;112.72;43.40;;;-1.30;99.90;;;-2.70;100.00;99230.59;5005612;28;20900;-79
2023/02/11 02:36:12;;;;;;;114.00;43.97;;;-1.30;99.90;;;-2.68;100.00;99231.31;5030369;28;20409;-79
2023/02/11 02:38:50;;;;;;;122.25;45.83;;;-1.20;99.90;;;-2.66;100.00;99235.44;5029395;28;20427;-79
2023/02/11 02:41:19;;;;;;;127.90;49.63;;;-1.20;99.90;;;-2.64;100.00;99224.97;5030144;28;20757;-79
2023/02/11 02:43:49;;;;;;;118.65;45.88;;;-1.20;99.90;;;-2.67;100.00;99220.81;5030161;28;20492;-79
2023/02/11 02:46:19;;;;;;;127.88;48.88;;;-1.30;99.90;;;-2.67;100.00;99223.41;5030084;28;21895;-79
2023/02/11 02:48:51;;;;;;;120.85;46.88;;;-1.20;99.90;;;-2.65;100.00;99220.72;5012502;28;20761;-79
2023/02/11 02:51:38;;;;;;;125.85;49.55;;;-1.20;99.90;;;-2.66;100.00;99212.09;5029981;28;20459;-78
2023/02/11 02:54:37;;;;;;;111.13;45.40;;;-1.20;99.90;;;-2.65;100.00;99216.34;5030002;28;20406;-79
2023/02/11 02:57:22;;;;;;;118.38;45.75;;;-1.20;99.90;;;-2.64;100.00;99209.41;5030034;28;20468;-78
2023/02/11 03:00:07;;;;;;;122.43;48.47;;;-1.20;99.90;;;-2.62;100.00;99210.91;5030086;28;20415;-79
2023/02/11 03:02:40;;;;;;;111.32;44.10;;;-1.20;99.90;;;-2.60;100.00;99197.81;5029815;28;20406;-79
2023/02/11 03:05:14;;;;;;;116.40;45.92;;;-1.10;99.90;;;-2.58;100.00;99206.31;5030150;28;20411;-79
2023/02/11 03:07:47;;;;;;;116.05;46.92;;;-1.10;99.90;;;-2.60;100.00;99198.66;5029800;28;20880;-79
2023/02/11 03:10:20;;;;;;;102.85;43.15;;;-1.10;99.90;;;-2.60;100.00;99201.25;5012123;28;21035;-79
2023/02/11 03:12:49;;;;;;;112.60;45.55;;;-1.20;99.90;;;-2.58;100.00;99194.19;5029675;28;20407;-79
2023/02/11 03:15:18;;;;;;;106.03;45.67;;;-1.20;99.90;;;-2.57;100.00;99195.81;5029863;28;20439;-78
2023/02/11 03:17:50;;;;;;;108.57;45.25;;;-1.10;99.90;;;-2.57;100.00;99195.81;5029759;28;20414;-79
2023/02/11 03:20:20;;;;;;;104.13;44.35;;;-1.10;99.90;;;-2.57;100.00;99202.78;5032537;28;20418;-78
2023/02/11 03:22:54;;;;;;;98.85;43.92;;;-1.20;99.90;;;-2.61;100.00;99183.22;5033672;28;20411;-79
2023/02/11 03:25:24;;;;;;;92.15;42.42;;;-1.20;99.90;;;-2.62;100.00;99184.97;5033923;28;20405;-79
2023/02/11 03:27:58;;;;;;;97.90;42.55;;;-1.20;99.90;;;-2.61;100.00;99184.03;5033673;28;20403;-79
2023/02/11 03:30:31;;;;;;;96.03;41.80;;;-1.20;99.90;;;-2.59;100.00;99183.94;5033897;28;20911;-79
2023/02/11 03:33:04;;;;;;;90.32;42.47;;;-1.20;99.90;;;-2.57;100.00;99182.03;5033394;28;20452;-79
2023/02/11 03:35:38;;;;;;;92.30;42.25;;;-1.10;99.90;;;-2.56;100.00;99176.75;5033791;28;20420;-79
2023/02/11 03:38:08;;;;;;;91.07;42.45;;;-1.10;99.90;;;-2.55;100.00;99175.75;5033564;28;20399;-79
2023/02/11 03:40:37;;;;;;;84.32;40.67;;;-1.10;99.90;;;-2.53;100.00;99180.84;5033554;28;20488;-79
2023/02/11 03:43:08;;;;;;;87.13;40.13;;;-1.10;99.90;;;-2.51;100.00;99190.13;5033163;28;20453;-79
2023/02/11 03:45:36;;;;;;;94.10;41.55;;;-1.10;99.90;;;-2.50;100.00;99188.38;5033520;28;20403;-79
2023/02/11 03:48:06;;;;;;;87.88;41.30;;;-1.10;99.90;;;-2.51;100.00;99191.91;5032044;28;20776;-79
2023/02/11 03:50:36;;;;;;;91.78;41.00;;;-1.10;99.90;;;-2.53;100.00;99196.38;5042738;28;20405;-79
2023/02/11 03:53:03;;;;;;;85.68;38.63;;;-1.10;99.90;;;-2.50;100.00;99198.75;5052488;28;20406;-79
2023/02/11 03:55:34;;;;;;;89.85;42.78;;;-1.10;99.90;;;-2.51;100.00;99190.13;5037316;28;20402;-79
2023/02/11 03:58:00;;;;;;;86.57;41.35;;;-1.10;99.90;;;-2.55;100.00;99187.91;5032919;28;20894;-79
2023/02/11 04:00:30;;;;;;;88.90;40.83;;;-1.10;99.90;;;-2.53;100.00;99180.84;5033263;28;20414;-79
2023/02/11 04:02:56;;;;;;;80.30;39.40;;;-1.10;99.90;;;-2.51;100.00;99177.19;5035723;28;20492;-80
2023/02/11 04:05:21;;;;;;;89.38;40.28;;;-1.10;99.90;;;-2.46;100.00;99176.78;5036389;28;20455;-79
2023/02/11 04:07:49;;;;;;;75.87;38.20;;;-1.00;99.90;;;-2.37;100.00;99182.06;5017831;28;20419;-79
2023/02/11 04:10:15;;;;;;;85.20;38.75;;;-1.00;99.90;;;-2.27;100.00;99191.69;5033504;28;20812;-79
2023/02/11 04:12:41;;;;;;;85.07;39.88;;;-0.90;99.90;;;-2.18;100.00;99203.91;5033174;28;20407;-80
2023/02/11 04:15:07;;;;;;;84.33;39.10;;;-0.80;99.90;;;-2.08;100.00;99199.59;5033257;28;20491;-78
2023/02/11 04:17:33;;;;;;;85.07;37.90;;;-0.70;99.90;;;-1.98;100.00;99206.50;5031663;28;20411;-79
2023/02/11 04:19:59;;;;;;;78.95;37.45;;;-0.60;99.90;;;-1.90;100.00;99203.25;5032591;28;20551;-80
2023/02/11 04:22:25;;;;;;;87.95;41.85;;;-0.50;99.90;;;-1.85;100.00;99208.06;5032636;28;20403;-79
2023/02/11 04:24:53;;;;;;;79.80;38.00;;;-0.50;99.90;;;-1.78;100.00;99215.22;5032778;28;20461;-80
2023/02/11 04:27:18;;;;;;;74.95;36.25;;;-0.40;99.90;;;-1.74;100.00;99211.44;5032835;28;20919;-79
2023/02/11 04:29:44;;;;;;;71.57;35.67;;;-0.40;99.90;;;-1.69;100.00;99216.22;5032510;28;20399;-80
2023/02/11 04:32:11;;;;;;;62.40;32.50;;;-0.30;99.90;;;-1.66;100.00;99214.19;5031499;28;20405;-80
2023/02/11 04:34:37;;;;;;;70.55;35.10;;;-0.30;99.90;;;-1.64;100.00;99209.69;5014909;28;20826;-80
2023/02/11 04:37:03;;;;;;;75.25;36.33;;;-0.30;99.90;;;-1.63;100.00;99211.31;5032563;28;20500;-79
2023/02/11 04:39:29;;;;;;;71.45;35.35;;;-0.30;99.90;;;-1.62;100.00;99210.38;5031145;28;20932;-79
2023/02/11 04:41:56;;;;;;;65.10;32.85;;;-0.20;99.90;;;-1.60;100.00;99199.88;5032083;28;20513;-80
2023/02/11 04:44:22;;;;;;;60.13;31.13;;;-0.30;99.90;;;-1.57;100.00;99200.41;5014459;28;20411;-79
2023/02/11 04:46:48;;;;;;;61.55;31.10;;;-0.20;99.90;;;-1.57;100.00;99202.19;5032357;28;20506;-79
2023/02/11 04:49:16;;;;;;;59.25;31.40;;;-0.20;99.90;;;-1.56;100.00;99190.84;5032426;28;20760;-79
2023/02/11 04:51:43;;;;;;;57.03;29.88;;;-0.20;99.90;;;-1.48;100.00;99192.81;5032044;28;20476;-79
2023/02/11 04:54:10;;;;;;;61.25;32.20;;;-0.10;99.90;;;-1.44;100.00;99195.03;5032151;28;20408;-79
2023/02/11 04:56:36;;;;;;;57.05;29.85;;;-0.10;99.90;;;-1.40;100.00;99192.97;5014334;28;20469;-79
2023/02/11 04:59:05;;;;;;;54.35;29.05;;;-0.10;99.90;;;-1.33;100.00;99192.31;5032040;28;20421;-79
2023/02/11 05:01:31;;;;;;;51.08;27.98;;;0.00;99.90;;;-1.31;100.00;99197.38;5031831;28;20399;-79
2023/02/11 05:03:57;;;;;;;53.97;28.63;;;0.00;99.90;;;-1.27;100.00;99188.38;5032042;28;20411;-79
2023/02/11 05:06:23;;;;;;;50.33;27.03;;;0.00;99.90;;;-1.25;100.00;99187.28;5038551;28;20408;-76
2023/02/11 05:08:49;;;;;;;55.97;29.00;;;0.10;99.90;;;-1.22;100.00;99194.84;5089889;22;20782;-74
2023/02/11 05:11:20;;;;;;;48.05;26.23;;;0.10;99.90;;;-1.18;100.00;99188.41;5091180;28;20413;-75
2023/02/11 05:13:47;;;;;;;45.72;27.00;;;0.10;99.90;;;-1.19;100.00;99183.34;5089013;28;20413;-75
2023/02/11 05:16:15;;;;;;;48.10;26.08;;;0.20;99.90;;;-1.23;100.00;99179.38;5091440;28;20402;-74
2023/02/11 05:18:42;;;;;;;47.20;26.58;;;0.10;99.90;;;-1.17;100.00;99169.25;5071374;28;20453;-74
2023/02/11 05:21:11;;;;;;;54.67;28.50;;;0.20;99.90;;;-1.16;100.00;99157.09;5064143;28;20432;-75
2023/02/11 05:23:38;;;;;;;49.22;27.92;;;0.20;99.90;;;-1.12;100.00;99147.25;5063275;28;20404;-74
2023/02/11 05:26:04;;;;;;;47.08;26.20;;;0.20;99.90;;;-1.08;100.00;99135.66;5061491;28;20400;-74
2023/02/11 05:28:31;;;;;;;47.25;26.60;;;0.20;99.90;;;-1.01;100.00;99134.16;5066711;28;20395;-74
2023/02/11 05:30:57;;;;;;;44.53;24.27;;;0.30;99.90;;;-0.97;100.00;99123.34;5068032;28;20971;-73
2023/02/11 05:33:24;;;;;;;41.30;24.25;;;0.30;99.90;;;-0.86;100.00;99132.78;5070614;28;20414;-73
2023/02/11 05:35:50;;;;;;;40.60;23.98;;;0.40;99.90;;;-0.79;100.00;99137.31;5070921;28;20411;-73
2023/02/11 05:38:16;;;;;;;40.08;22.65;;;0.50;99.90;;;-0.74;100.00;99136.06;5070625;28;20406;-72
2023/02/11 05:40:43;;;;;;;43.20;23.40;;;0.50;99.90;;;-0.74;100.00;99142.09;5071148;28;20412;-73
2023/02/11 05:43:09;;;;;;;42.45;24.50;;;0.60;99.90;;;-0.76;100.00;99128.44;5070480;28;20395;-73
2023/02/11 05:45:35;;;;;;;44.55;25.83;;;0.50;99.90;;;-0.81;100.00;99126.22;5070756;28;20903;-73
2023/02/11 05:48:01;;;;;;;45.08;25.85;;;0.50;99.90;;;-0.77;100.00;99137.19;5070633;28;20396;-74
2023/02/11 05:50:28;;;;;;;46.85;26.05;;;0.50;99.90;;;-0.74;100.00;99143.88;5069450;28;20390;-75
2023/02/11 05:52:54;;;;;;;42.05;23.75;;;0.50;99.90;;;-0.75;100.00;99140.44;5074870;28;20415;-72
2023/02/11 05:55:20;;;;;;;42.27;23.50;;;0.60;99.90;;;-0.76;100.00;99132.81;5070972;28;20489;-73
2023/02/11 05:57:46;;;;;;;37.88;23.73;;;0.60;99.90;;;-0.81;100.00;99131.41;5070827;28;20495;-74
2023/02/11 06:00:14;;;;;;;41.97;24.38;;;0.50;99.90;;;-0.80;100.00;99133.06;5060602;28;20421;-72
2023/02/11 06:02:39;;;;;;;41.38;23.70;;;0.50;99.90;;;-0.78;100.00;99138.13;5067256;28;20627;-74
2023/02/11 06:05:07;;;;;;;44.50;24.48;;;0.50;99.90;;;-0.77;100.00;99136.38;5069541;28;20407;-74
2023/02/11 06:07:34;;;;;;;42.73;24.13;;;0.50;99.90;;;-0.74;100.00;99146.47;5071325;28;20449;-74
2023/02/11 06:10:00;;;;;;;43.78;23.98;;;0.50;99.90;;;-0.74;100.00;99142.09;5069925;28;20396;-73
2023/02/11 06:12:26;;;;;;;48.10;26.30;;;0.60;99.90;;;-0.76;100.00;99154.44;5070566;28;20777;-73
2023/02/11 06:14:52;;;;;;;46.90;25.87;;;0.50;99.90;;;-0.75;100.00;99161.25;5071101;28;20652;-73
2023/02/11 06:17:18;;;;;;;44.17;24.10;;;0.60;99.90;;;-0.71;100.00;99167.84;5070743;28;20400;-73
2023/02/11 06:19:44;;;;;;;51.45;26.73;;;0.60;99.90;;;-0.79;100.00;99172.88;5070592;28;20411;-74
2023/02/11 06:22:10;;;;;;;44.65;23.98;;;0.60;99.90;;;-0.72;100.00;99174.00;5069141;28;20403;-73
2023/02/11 06:24:38;;;;;;;48.22;26.50;;;0.60;99.90;;;-0.73;100.00;99169.75;5070748;28;20474;-74
2023/02/11 06:27:04;;;;;;;47.00;26.05;;;0.60;99.90;;;-0.76;100.00;99161.41;5070686;28;20434;-73
2023/02/11 06:29:30;;;;;;;53.28;28.08;;;0.50;99.90;;;-0.68;100.00;99159.78;5070642;28;20396;-76
2023/02/11 06:31:56;;;;;;;50.83;27.15;;;0.60;99.90;;;-0.67;100.00;99166.59;5070176;28;20460;-76
2023/02/11 06:34:22;;;;;;;49.25;27.02;;;0.60;99.90;;;-0.81;100.00;99161.78;5070569;28;20486;-76
2023/02/11 06:36:48;;;;;;;43.38;25.02;;;0.50;99.90;;;-0.76;100.00;99156.22;5069093;28;20839;-76
2023/02/11 06:39:14;;;;;;;46.13;25.53;;;0.50;99.90;;;-0.72;100.00;99155.78;5070289;28;20458;-76
2023/02/11 06:41:41;;;;;;;49.13;25.55;;;0.60;99.90;;;-0.65;100.00;99153.47;5070131;28;20403;-76
2023/02/11 06:44:07;;;;;;;44.97;25.33;;;0.60;99.90;;;-0.61;100.00;99165.25;5068719;28;20403;-75
2023/02/11 06:46:33;;;;;;;50.60;25.85;;;0.70;99.90;;;-0.60;100.00;99159.09;5070240;28;20402;-75
2023/02/11 06:48:58;;;;;;;50.30;26.27;;;0.70;99.90;;;-0.58;100.00;99170.16;5070208;28;20406;-76
2023/02/11 06:51:24;;;;;;;55.63;29.50;;;0.70;99.90;;;-0.62;100.00;99166.19;5069923;28;20431;-76
2023/02/11 06:53:50;;;;;;;51.23;27.23;;;0.70;99.90;;;-0.57;100.00;99174.41;5069568;28;20950;-76
2023/02/11 06:56:19;;;;;;;55.67;28.67;;;0.70;99.90;;;-0.55;100.00;99178.53;5070155;28;20423;-76
2023/02/11 06:58:50;;;;;;;50.55;27.40;;;0.70;99.90;;;-0.53;100.00;99171.41;5069900;28;20407;-76
2023/02/11 07:01:16;;;;;;;51.13;27.42;;;0.80;99.90;;;-0.51;100.00;99173.84;5069842;28;20411;-76
2023/02/11 07:03:45;;;;;;;52.28;27.45;;;0.80;99.90;;;-0.49;100.00;99182.34;5085465;28;20447;-78
2023/02/11 07:06:13;;;;;;;50.60;26.77;;;0.80;99.90;;;-0.45;100.00;99186.31;5070228;28;20411;-77
2023/02/11 07:08:41;;;;;;;45.17;26.37;;;0.80;99.90;;;-0.47;100.00;99180.44;5069835;28;20396;-76
2023/02/11 07:11:13;;;;;;;46.10;26.00;;;0.80;99.90;;;-0.46;100.00;99176.88;5068103;28;20405;-74
2023/02/11 07:13:39;;;;;;;45.95;26.48;;;0.80;99.90;;;-0.45;100.00;99179.31;5066847;28;20403;-76
2023/02/11 07:16:09;;;;;;;44.22;25.48;;;0.80;99.90;;;-0.46;100.00;99172.50;5082633;28;20421;-74
2023/02/11 07:18:35;;;;;;;44.73;25.73;;;0.80;99.90;;;-0.45;100.00;99174.13;5069252;28;20897;-75
2023/02/11 07:21:04;;;;;;;45.70;26.30;;;0.80;99.90;;;-0.42;100.00;99170.44;5068524;28;20424;-76
2023/02/11 07:23:30;;;;;;;53.38;28.70;;;0.90;99.90;;;-0.38;100.00;99170.00;5062132;28;20400;-74
2023/02/11 07:25:56;;;;;;;54.08;29.08;;;0.90;99.90;;;-0.33;100.00;99171.41;5061730;28;20419;-74
2023/02/11 07:28:22;;;;;;;57.65;30.95;;;1.00;99.90;;;-0.27;100.00;99163.03;5066192;28;20413;-74
2023/02/11 07:30:48;;;;;;;56.90;31.30;;;1.00;99.90;;;-0.22;100.00;99158.22;5052945;28;20498;-74
2023/02/11 07:33:15;;;;;;;53.03;28.08;;;1.00;99.90;;;-0.19;100.00;99165.75;5055715;28;20415;-74
2023/02/11 07:35:41;;;;;;;46.83;26.43;;;1.10;99.90;;;-0.17;100.00;99180.28;5060024;28;20414;-74
2023/02/11 07:38:07;;;;;;;44.22;25.05;;;1.10;99.90;;;-0.16;100.00;99186.31;5064792;28;20421;-73
2023/02/11 07:40:33;;;;;;;45.63;26.85;;;1.10;99.90;;;-0.15;100.00;99186.16;5061706;28;20418;-73
2023/02/11 07:43:00;;;;;;;46.65;26.33;;;1.10;99.90;;;-0.11;100.00;99191.91;5064360;28;20412;-74
2023/02/11 07:45:26;;;;;;;43.33;24.13;;;1.20;99.90;;;-0.06;100.00;99192.31;5068097;28;20457;-74
2023/02/11 07:47:52;;;;;;;48.38;26.80;;;1.20;99.90;;;0.00;100.00;99191.78;5061650;28;20786;-74
2023/02/11 07:50:19;;;;;;;42.40;25.55;;;1.20;99.90;;;0.06;100.00;99188.59;5057505;28;20830;-73
2023/02/11 07:52:45;;;;;;;46.47;27.38;;;1.30;99.90;;;0.12;100.00;99180.22;5065576;28;20426;-73
2023/02/11 07:55:11;;;;;;;46.77;27.20;;;1.40;99.90;;;0.23;100.00;99182.66;5067862;28;20912;-73
2023/02/11 07:57:37;;;;;;;47.83;27.33;;;1.50;99.90;;;0.28;100.00;99175.25;5068146;28;20422;-74
2023/02/11 08:00:05;;;;;;;40.93;25.33;;;1.50;99.90;;;0.34;100.00;99172.06;5065616;28;20516;-72
2023/02/11 08:02:31;;;;;;;46.20;24.98;;;1.50;99.90;;;0.40;100.00;99178.50;5060318;28;20750;-72
2023/02/11 08:04:57;;;;;;;44.50;26.23;;;1.60;99.90;;;0.44;100.00;99168.63;5064927;28;20422;-73
2023/02/11 08:07:24;;;;;;;45.03;27.50;;;1.70;99.90;;;0.42;100.00;99160.13;5071432;28;20434;-73
2023/02/11 08:09:50;;;;;;;43.55;25.60;;;1.60;99.90;;;0.57;100.00;99164.72;5066822;28;20445;-73
2023/02/11 08:12:16;;;;;;;39.37;24.57;;;1.80;99.90;;;0.58;100.00;99160.34;5064926;28;20472;-73
2023/02/11 08:14:42;;;;;;;38.22;22.33;;;1.80;99.90;;;0.67;100.00;99164.69;5069196;28;21208;-74
2023/02/11 08:17:08;;;;;;;35.15;22.65;;;1.90;99.90;;;0.73;100.00;99153.69;5056229;28;20436;-73
2023/02/11 08:19:34;;;;;;;34.20;21.43;;;1.90;99.90;;;0.75;100.00;99151.75;5067765;28;20486;-73
2023/02/11 08:22:00;;;;;;;34.28;21.13;;;2.00;99.90;;;1.00;100.00;99160.66;5064124;28;20841;-74
2023/02/11 08:24:27;;;;;;;29.00;18.25;;;2.20;99.90;;;1.06;100.00;99155.66;5072519;28;20404;-74
2023/02/11 08:26:53;;;;;;;27.87;17.67;;;2.20;99.90;;;1.14;100.00;99163.56;5069446;28;20498;-74
2023/02/11 08:29:20;;;;;;;28.08;18.02;;;2.30;99.90;;;1.23;100.00;99166.25;5070111;28;20407;-74
2023/02/11 08:31:47;;;;;;;27.13;17.03;;;2.40;99.90;;;1.31;100.00;99168.97;5069749;28;20415;-74
2023/02/11 08:34:17;;;;;;;24.58;16.52;;;2.50;99.90;;;1.38;100.00;99170.00;5067232;28;20493;-74
2023/02/11 08:36:43;;;;;;;26.20;16.87;;;2.50;99.90;;;1.43;100.00;99175.59;5070190;28;20485;-73
2023/02/11 08:39:14;;;;;;;27.13;17.00;;;2.60;99.90;;;1.43;100.00;99180.78;5069340;28;20407;-73
2023/02/11 08:41:42;;;;;;;25.67;16.35;;;2.60;99.90;;;1.46;100.00;99178.72;5068001;28;20452;-73
2023/02/11 08:44:08;;;;;;;23.08;15.70;;;2.60;99.90;;;1.47;100.00;99175.16;5062992;28;20448;-73
2023/02/11 08:46:34;;;;;;;25.40;16.50;;;2.70;99.90;;;1.48;100.00;99168.97;5068110;28;20447;-74
2023/02/11 08:48:59;;;;;;;27.52;16.95;;;2.70;99.90;;;1.51;100.00;99165.22;5070463;28;20785;-74
2023/02/11 08:51:29;;;;;;;24.90;16.20;;;2.70;99.90;;;1.57;100.00;99171.66;5061584;28;20454;-73
2023/02/11 08:53:56;;;;;;;27.10;16.75;;;2.70;99.90;;;1.63;100.00;99171.03;5069899;28;20452;-73
2023/02/11 08:56:23;;;;;;;24.77;15.90;;;2.80;99.90;;;1.73;100.00;99169.97;5070579;28;20436;-73
2023/02/11 08:58:52;;;;;;;28.20;16.17;;;2.90;99.90;;;1.81;100.00;99157.00;5070086;28;20500;-73
2023/02/11 09:01:21;;;;;;;27.27;16.48;;;3.00;99.90;;;1.91;100.00;99160.34;5069993;28;20669;-73
2023/02/11 09:03:47;;;;;;;22.27;14.50;;;3.00;99.90;;;1.99;100.00;99153.53;5071126;28;20478;-74
2023/02/11 09:06:16;;;;;;;24.30;14.40;;;3.10;99.90;;;2.09;100.00;99159.47;5072310;28;20446;-73
2023/02/11 09:08:44;;;;;;;18.90;12.77;;;3.20;99.90;;;2.25;100.00;99159.59;5072015;28;20480;-73
2023/02/11 09:11:10;;;;;;;21.83;14.27;;;3.40;99.90;;;2.39;100.00;99168.63;5072155;28;20884;-73
2023/02/11 09:13:38;;;;;;;21.42;13.93;;;3.50;99.90;;;2.60;100.00;99172.50;5071969;28;20396;-73
2023/02/11 09:16:07;;;;;;;18.70;12.57;;;3.60;99.90;;;2.67;100.00;99181.34;5071777;28;20452;-73
2023/02/11 09:18:33;;;;;;;20.17;12.85;;;3.80;99.90;;;2.75;100.00;99162.28;5071626;28;20902;-73
2023/02/11 09:21:02;;;;;;;18.98;11.90;;;3.80;99.90;;;2.80;100.00;99161.78;5071840;28;20469;-73
2023/02/11 09:23:29;;;;;;;18.88;12.23;;;3.80;99.90;;;2.82;100.00;99160.66;5070447;28;20419;-74
2023/02/11 09:25:55;;;;;;;21.23;13.90;;;3.90;99.90;;;2.90;100.00;99163.31;5071705;28;20430;-73
2023/02/11 09:28:21;;;;;;;23.35;15.10;;;3.90;99.90;;;2.96;100.00;99152.22;5071775;28;20403;-73
2023/02/11 09:30:46;;;;;;;26.98;15.38;;;4.00;99.90;;;3.02;100.00;99163.81;5071732;28;20863;-73
2023/02/11 09:33:14;;;;;;;25.15;16.60;;;4.10;99.90;;;3.15;100.00;99145.06;5071336;28;20825;-73
2023/02/11 09:35:40;;;;;;;27.88;17.60;;;4.20;99.90;;;3.26;100.00;99155.22;5071666;28;20403;-73
2023/02/11 09:38:06;;;;;;;30.15;18.48;;;4.30;99.90;;;3.55;100.00;99157.38;5071611;28;20483;-74
2023/02/11 09:40:33;;;;;;;20.73;14.57;;;4.60;99.90;;;3.49;100.00;99148.38;5071459;28;20828;-73
2023/02/11 09:43:04;;;;;;;16.85;10.57;;;4.60;99.90;;;3.34;100.00;99139.53;5071022;28;20411;-73
2023/02/11 09:45:31;;;;;;;19.33;11.20;;;4.40;99.90;;;3.24;100.00;99146.69;5071512;28;20396;-74
2023/02/11 09:48:01;;;;;;;18.02;10.40;;;4.30;99.90;;;3.64;100.00;99151.97;5071312;28;20404;-73
2023/02/11 09:50:33;;;;;;;18.70;10.53;;;4.60;99.90;;;3.48;100.00;99154.59;5071309;28;20396;-73
2023/02/11 09:53:03;;;;;;;16.50;10.40;;;4.60;99.90;;;3.84;100.00;99150.66;5070929;28;20403;-73
2023/02/11 09:55:36;;;;;;;18.90;10.63;;;4.90;99.90;;;4.09;100.00;99159.31;5070051;28;20400;-73
2023/02/11 09:58:06;;;;;;;13.63;9.50;;;5.10;99.90;;;4.45;100.00;99162.34;5071159;28;20818;-72
2023/02/11 10:00:38;;;;;;;15.63;8.75;;;5.50;99.90;;;4.94;100.00;99157.75;5070974;28;20882;-74
2023/02/11 10:03:33;;;;;;;16.48;8.75;;;6.00;99.90;;;5.53;100.00;99162.47;5070905;28;20410;-73
2023/02/11 10:06:25;;;;;;;12.20;7.90;;;6.60;99.90;;;5.74;100.00;99165.28;5071073;28;20411;-73
2023/02/11 10:09:03;;;;;;;10.68;7.25;;;6.90;99.90;;;5.95;100.00;99177.78;5070769;28;20420;-73
2023/02/11 10:11:40;;;;;;;10.70;6.82;;;7.00;99.90;;;5.70;100.00;99171.88;5069220;28;20758;-73
2023/02/11 10:14:24;;;;;;;13.98;8.10;;;6.90;99.90;;;5.56;100.00;99183.16;5064069;28;20905;-73